Time;durP1;ratioP1;P1;durP2;ratioP2;P2;SDS_P1;SDS_P2;PMS_P1;PMS_P2;Temp;Humidity;BMP_temperature;BMP_pressure;BME280_temperature;BME280_humidity;BME280_pressure;Samples;Min_cycle;Max_cycle;Signal;HPM_P1;HPM_P2
2020/03/12 00:00:04;;;;;;;6.9;4.9;;;;;;;;;;;;;
2020/03/12 00:02:29;;;;;;;10.3;6.9;;;;;;;;;;;;;
2020/03/12 00:04:54;;;;;;;8.2;5.1;;;;;;;;;;;;;
2020/03/12 00:07:19;;;;;;;8.6;5.2;;;;;;;;;;;;;
2020/03/12 00:09:45;;;;;;;7.4;4.3;;;;;;;;;;;;;
2020/03/12 00:12:10;;;;;;;23.5;9.9;;;;;;;;;;;;;
2020/03/12 00:14:35;;;;;;;18.5;9.1;;;;;;;;;;;;;
2020/03/12 00:17:00;;;;;;;18.9;10.5;;;;;;;;;;;;;
2020/03/12 00:19:25;;;;;;;9.6;5.7;;;;;;;;;;;;;
2020/03/12 00:21:50;;;;;;;8.1;4.9;;;;;;;;;;;;;
2020/03/12 00:24:15;;;;;;;5.5;3.4;;;;;;;;;;;;;
2020/03/12 00:26:41;;;;;;;5.3;3;;;;;;;;;;;;;
2020/03/12 00:29:06;;;;;;;6.7;2.2;;;;;;;;;;;;;
2020/03/12 00:31:31;;;;;;;3.9;2;;;;;;;;;;;;;
2020/03/12 00:33:56;;;;;;;3.7;2.2;;;;;;;;;;;;;
2020/03/12 00:36:21;;;;;;;4.6;2;;;;;;;;;;;;;
2020/03/12 00:38:46;;;;;;;3.3;2.1;;;;;;;;;;;;;
2020/03/12 00:41:11;;;;;;;5;2.2;;;;;;;;;;;;;
2020/03/12 00:43:37;;;;;;;4;2;;;;;;;;;;;;;
2020/03/12 00:46:02;;;;;;;4.4;2.4;;;;;;;;;;;;;
2020/03/12 00:48:27;;;;;;;6.6;3.4;;;;;;;;;;;;;
2020/03/12 00:50:52;;;;;;;6.9;3.8;;;;;;;;;;;;;
2020/03/12 00:53:17;;;;;;;7.1;4.2;;;;;;;;;;;;;
2020/03/12 00:55:42;;;;;;;6.4;3.9;;;;;;;;;;;;;
2020/03/12 00:58:08;;;;;;;6.4;3.5;;;;;;;;;;;;;
2020/03/12 01:00:33;;;;;;;7.8;4.2;;;;;;;;;;;;;
2020/03/12 01:02:58;;;;;;;7.3;4.2;;;;;;;;;;;;;
2020/03/12 01:05:23;;;;;;;7.7;3.8;;;;;;;;;;;;;
2020/03/12 01:07:48;;;;;;;6.4;3.6;;;;;;;;;;;;;
2020/03/12 01:10:14;;;;;;;6.6;3.6;;;;;;;;;;;;;
2020/03/12 01:12:39;;;;;;;8.1;3.5;;;;;;;;;;;;;
2020/03/12 01:15:04;;;;;;;4.7;3.2;;;;;;;;;;;;;
2020/03/12 01:17:29;;;;;;;4.7;2.9;;;;;;;;;;;;;
2020/03/12 01:19:55;;;;;;;4.8;3.2;;;;;;;;;;;;;
2020/03/12 01:22:20;;;;;;;5;3.1;;;;;;;;;;;;;
2020/03/12 01:24:45;;;;;;;5.3;3.2;;;;;;;;;;;;;
2020/03/12 01:27:10;;;;;;;5.6;2.6;;;;;;;;;;;;;
2020/03/12 01:29:35;;;;;;;3.1;2;;;;;;;;;;;;;
2020/03/12 01:32:00;;;;;;;3.3;2.2;;;;;;;;;;;;;
2020/03/12 01:34:25;;;;;;;2.9;2;;;;;;;;;;;;;
2020/03/12 01:36:50;;;;;;;3.1;1.9;;;;;;;;;;;;;
2020/03/12 01:39:15;;;;;;;3.3;1.6;;;;;;;;;;;;;
2020/03/12 01:41:41;;;;;;;2.8;1.5;;;;;;;;;;;;;
2020/03/12 01:44:06;;;;;;;2.5;1.6;;;;;;;;;;;;;
2020/03/12 01:46:31;;;;;;;3.4;1.7;;;;;;;;;;;;;
2020/03/12 01:48:57;;;;;;;2.9;1.6;;;;;;;;;;;;;
2020/03/12 01:51:22;;;;;;;2.8;2;;;;;;;;;;;;;
2020/03/12 01:53:47;;;;;;;6.5;3.4;;;;;;;;;;;;;
2020/03/12 01:56:12;;;;;;;6.7;5;;;;;;;;;;;;;
2020/03/12 01:58:37;;;;;;;10.8;6.7;;;;;;;;;;;;;
2020/03/12 02:01:02;;;;;;;12.3;7;;;;;;;;;;;;;
2020/03/12 02:03:27;;;;;;;12.2;8.6;;;;;;;;;;;;;
2020/03/12 02:05:52;;;;;;;10.8;7.4;;;;;;;;;;;;;
2020/03/12 02:08:17;;;;;;;4.2;2.6;;;;;;;;;;;;;
2020/03/12 02:10:42;;;;;;;4.1;2.4;;;;;;;;;;;;;
2020/03/12 02:13:08;;;;;;;3.1;2;;;;;;;;;;;;;
2020/03/12 02:15:33;;;;;;;3.3;2;;;;;;;;;;;;;
2020/03/12 02:17:58;;;;;;;3.5;2.1;;;;;;;;;;;;;
2020/03/12 02:20:23;;;;;;;3.3;2.2;;;;;;;;;;;;;
2020/03/12 02:22:48;;;;;;;3.3;1.9;;;;;;;;;;;;;
2020/03/12 02:25:13;;;;;;;3.1;2;;;;;;;;;;;;;
2020/03/12 02:27:38;;;;;;;4.5;3;;;;;;;;;;;;;
2020/03/12 02:30:03;;;;;;;5.3;2.6;;;;;;;;;;;;;
2020/03/12 02:32:28;;;;;;;4.2;2.4;;;;;;;;;;;;;
2020/03/12 02:34:54;;;;;;;3.8;2.4;;;;;;;;;;;;;
2020/03/12 02:37:19;;;;;;;4.9;2.3;;;;;;;;;;;;;
2020/03/12 02:39:44;;;;;;;6.1;2.1;;;;;;;;;;;;;
2020/03/12 02:42:09;;;;;;;6.2;2.4;;;;;;;;;;;;;
2020/03/12 02:44:34;;;;;;;3.4;2.5;;;;;;;;;;;;;
2020/03/12 02:47:00;;;;;;;3.4;2.5;;;;;;;;;;;;;
2020/03/12 02:49:25;;;;;;;3.5;2.2;;;;;;;;;;;;;
2020/03/12 02:51:50;;;;;;;3.3;2.1;;;;;;;;;;;;;
2020/03/12 02:54:15;;;;;;;4;2;;;;;;;;;;;;;
2020/03/12 02:56:40;;;;;;;2.5;1.8;;;;;;;;;;;;;
2020/03/12 02:59:05;;;;;;;3.1;1.9;;;;;;;;;;;;;
2020/03/12 03:01:30;;;;;;;3.9;1.7;;;;;;;;;;;;;
2020/03/12 03:03:55;;;;;;;3;1.6;;;;;;;;;;;;;
2020/03/12 03:06:21;;;;;;;3.1;1.8;;;;;;;;;;;;;
2020/03/12 03:08:46;;;;;;;4;2;;;;;;;;;;;;;
2020/03/12 03:11:11;;;;;;;3.4;2.6;;;;;;;;;;;;;
2020/03/12 03:13:36;;;;;;;4.8;3.9;;;;;;;;;;;;;
2020/03/12 03:16:01;;;;;;;6.4;4.4;;;;;;;;;;;;;
2020/03/12 03:18:26;;;;;;;4.5;3.2;;;;;;;;;;;;;
2020/03/12 03:20:51;;;;;;;3.9;2.1;;;;;;;;;;;;;
2020/03/12 03:23:16;;;;;;;4.1;2.2;;;;;;;;;;;;;
2020/03/12 03:25:41;;;;;;;4;2.1;;;;;;;;;;;;;
2020/03/12 03:28:09;;;;;;;3.2;2;;;;;;;;;;;;;
2020/03/12 03:30:32;;;;;;;3.3;1.8;;;;;;;;;;;;;
2020/03/12 03:32:57;;;;;;;2.9;1.8;;;;;;;;;;;;;
2020/03/12 03:35:22;;;;;;;2.9;1.9;;;;;;;;;;;;;
2020/03/12 03:37:47;;;;;;;2.4;1.9;;;;;;;;;;;;;
2020/03/12 03:40:12;;;;;;;9.3;6;;;;;;;;;;;;;
2020/03/12 03:42:37;;;;;;;7;4.1;;;;;;;;;;;;;
2020/03/12 03:45:02;;;;;;;3.8;2.5;;;;;;;;;;;;;
2020/03/12 03:47:28;;;;;;;5.5;3.2;;;;;;;;;;;;;
2020/03/12 03:49:53;;;;;;;5.2;3.2;;;;;;;;;;;;;
2020/03/12 03:52:18;;;;;;;3.1;2.2;;;;;;;;;;;;;
2020/03/12 03:54:43;;;;;;;3.1;2.1;;;;;;;;;;;;;
2020/03/12 03:57:08;;;;;;;2.6;1.7;;;;;;;;;;;;;
2020/03/12 03:59:33;;;;;;;2.3;1.6;;;;;;;;;;;;;
2020/03/12 04:02:30;;;;;;;3.1;1.8;;;;;;;3.48;87.97559;938.0405;;;;
2020/03/12 04:04:55;;;;;;;3.5;1.9;;;;;;;3.49;87.39258;937.9551;;;;
2020/03/12 04:07:20;;;;;;;2.5;1.6;;;;;;;3.43;86.96484;938.0317;;;;
2020/03/12 04:09:45;;;;;;;2.8;1.7;;;;;;;3.42;86.60547;937.9874;;;;
2020/03/12 04:12:10;;;;;;;2.8;1.5;;;;;;;3.43;85.91113;937.9428;;;;
2020/03/12 04:14:35;;;;;;;3.6;2.1;;;;;;;3.28;87.00098;938.0244;;;;
2020/03/12 04:17:00;;;;;;;3.8;1.9;;;;;;;3.22;87.69629;937.9899;;;;
2020/03/12 04:19:26;;;;;;;5;1.7;;;;;;;3.2;87.51367;938.0457;;;;
2020/03/12 04:21:51;;;;;;;4;1.7;;;;;;;3.2;87.51367;938.0164;;;;
2020/03/12 04:24:16;;;;;;;6.7;1.9;;;;;;;3.19;87.40137;938.0392;;;;
2020/03/12 04:26:41;;;;;;;3.5;1.9;;;;;;;3.1;87.64844;938.0489;;;;
2020/03/12 04:29:06;;;;;;;4.3;1.8;;;;;;;3.13;87.73438;938.0644;;;;
2020/03/12 04:31:31;;;;;;;4.8;1.9;;;;;;;3.1;88.17773;938.0485;;;;
2020/03/12 04:33:56;;;;;;;2.8;1.7;;;;;;;3.15;87.89453;938.0416;;;;
2020/03/12 04:36:21;;;;;;;2.5;1.7;;;;;;;3.13;87.75684;938.032;;;;
2020/03/12 04:38:46;;;;;;;3.3;1.8;;;;;;;3.17;87.87793;937.9369;;;;
2020/03/12 04:41:11;;;;;;;2.7;1.8;;;;;;;3.14;87.7041;938.0059;;;;
2020/03/12 04:43:37;;;;;;;4.3;1.9;;;;;;;3.07;87.96777;938.0604;;;;
2020/03/12 04:46:02;;;;;;;5;2.1;;;;;;;2.95;88.78516;938.1589;;;;
2020/03/12 04:48:27;;;;;;;7.6;4.3;;;;;;;2.93;89.02832;938.0898;;;;
2020/03/12 04:51:02;;;;;;;6.2;4.3;;;;;;;2.95;88.80762;937.963;;;;
2020/03/12 04:53:17;;;;;;;6;3.8;;;;;;;2.91;88.78809;938.0558;;;;
2020/03/12 04:55:43;;;;;;;10.2;4.7;;;;;;;2.86;89.10449;938.0416;;;;
2020/03/12 04:58:19;;;;;;;10.9;7.1;;;;;;;2.9;89.22266;938.0547;;;;
2020/03/12 05:00:32;;;;;;;12.2;6.8;;;;;;;2.98;88.26563;937.9461;;;;
2020/03/12 05:02:57;;;;;;;7.6;4.8;;;;;;;2.96;88.27246;937.9061;;;;
2020/03/12 05:05:23;;;;;;;8.1;4.5;;;;;;;2.93;88.23145;937.9216;;;;
2020/03/12 05:07:48;;;;;;;4.1;2.6;;;;;;;2.83;89.62402;937.9807;;;;
2020/03/12 05:10:13;;;;;;;4.7;2.3;;;;;;;2.74;89.87402;937.8817;;;;
2020/03/12 05:12:38;;;;;;;3.1;1.8;;;;;;;2.77;90.69824;937.8184;;;;
2020/03/12 05:15:03;;;;;;;2.8;2;;;;;;;2.93;90.21484;937.8969;;;;
2020/03/12 05:17:28;;;;;;;3.4;2.8;;;;;;;3.01;89.2373;937.8462;;;;
2020/03/12 05:19:53;;;;;;;4.8;3.1;;;;;;;3.04;88.78125;937.8423;;;;
2020/03/12 05:22:55;;;;;;;4.1;3.1;;;;;;;3.06;89.08984;937.8047;;;;
2020/03/12 05:25:20;;;;;;;7.6;4.6;;;;;;;2.93;88.96094;937.7986;;;;
2020/03/12 05:27:45;;;;;;;4.6;3.1;;;;;;;2.89;89.28906;937.7966;;;;
2020/03/12 05:30:10;;;;;;;5.2;2.6;;;;;;;2.85;90.58105;937.8209;;;;
2020/03/12 05:32:36;;;;;;;5.9;3.4;;;;;;;2.97;90.77441;937.6979;;;;
2020/03/12 05:35:01;;;;;;;6;2.9;;;;;;;3.11;89.91895;937.6861;;;;
2020/03/12 05:38:53;;;;;;;5.3;2.8;;;;;;;3.17;88.49316;937.6959;;;;
2020/03/12 05:41:18;;;;;;;4;2.7;;;;;;;2.97;88.11523;937.7073;;;;
2020/03/12 05:43:44;;;;;;;8.1;4.6;;;;;;;2.74;89.81738;937.7224;;;;
2020/03/12 05:46:09;;;;;;;5.9;3.7;;;;;;;2.79;89.96191;937.7146;;;;
2020/03/12 05:48:34;;;;;;;6.7;3.5;;;;;;;2.89;89.55859;937.5967;;;;
2020/03/12 05:50:59;;;;;;;6;3.6;;;;;;;2.9;89.53809;937.7615;;;;
2020/03/12 05:53:24;;;;;;;4.9;2.7;;;;;;;2.9;89.37012;937.6602;;;;
2020/03/12 05:55:49;;;;;;;5.3;2.6;;;;;;;3;88.9082;937.7405;;;;
2020/03/12 05:58:14;;;;;;;4.5;2.8;;;;;;;3.01;88.5498;937.6736;;;;
2020/03/12 06:00:39;;;;;;;6.7;3.5;;;;;;;3.03;88.37598;937.6539;;;;
2020/03/12 06:03:05;;;;;;;6.2;2.7;;;;;;;3.11;87.95508;937.687;;;;
2020/03/12 06:05:30;;;;;;;5.9;2.7;;;;;;;3.22;87.80859;937.6106;;;;
2020/03/12 06:07:55;;;;;;;5.1;3.2;;;;;;;3.35;87.16113;937.5753;;;;
2020/03/12 06:10:20;;;;;;;7.6;3.8;;;;;;;3.56;86.37305;937.5645;;;;
2020/03/12 06:12:45;;;;;;;16.3;8.3;;;;;;;3.52;86.33301;937.5563;;;;
2020/03/12 06:15:10;;;;;;;42.3;17.5;;;;;;;4.07;85.24902;937.5313;;;;
2020/03/12 06:17:44;;;;;;;44.6;18.3;;;;;;;5.17;79.98145;937.4872;;;;
2020/03/12 06:20:09;;;;;;;19.7;9.4;;;;;;;5.58;77.25879;937.4714;;;;
2020/03/12 06:22:34;;;;;;;13.4;6;;;;;;;5.82;76.07031;937.4156;;;;
2020/03/12 06:24:59;;;;;;;11.4;4.9;;;;;;;6.04;76.36914;937.463;;;;
2020/03/12 06:27:24;;;;;;;7.3;3.3;;;;;;;5.85;76.83203;937.4813;;;;
2020/03/12 06:29:49;;;;;;;5.7;3.3;;;;;;;6;75.89941;937.4917;;;;
2020/03/12 06:32:14;;;;;;;8.3;3.4;;;;;;;6.19;75.2998;937.4099;;;;
2020/03/12 06:34:40;;;;;;;9.5;3.7;;;;;;;6.63;73.50879;937.3869;;;;
2020/03/12 06:37:05;;;;;;;5.1;2.9;;;;;;;6.89;72.46875;937.5061;;;;
2020/03/12 06:39:30;;;;;;;3.6;1.9;;;;;;;7.07;71.72754;937.4009;;;;
2020/03/12 06:41:56;;;;;;;5.8;2.2;;;;;;;7.57;70.58594;937.3427;;;;
2020/03/12 06:44:21;;;;;;;5.1;1.9;;;;;;;8.07;69.11523;937.3923;;;;
2020/03/12 06:46:46;;;;;;;3.1;1.6;;;;;;;8.3;67.45898;937.3345;;;;
2020/03/12 06:49:11;;;;;;;5.1;1.7;;;;;;;8.05;68.5332;937.438;;;;
2020/03/12 06:51:37;;;;;;;3.4;1.4;;;;;;;8.02;68.52734;937.3875;;;;
2020/03/12 06:54:02;;;;;;;4.9;2.2;;;;;;;8.15;68.44531;937.3801;;;;
2020/03/12 06:56:27;;;;;;;5;2.3;;;;;;;8.75;65.77734;937.4805;;;;
2020/03/12 06:58:52;;;;;;;5.8;2.6;;;;;;;9.26;65.05957;937.5964;;;;
2020/03/12 07:01:18;;;;;;;3.6;2.3;;;;;;;9.97;62.0752;937.5563;;;;
2020/03/12 07:03:43;;;;;;;4.4;2.3;;;;;;;10.04;61.83594;937.6003;;;;
2020/03/12 07:06:08;;;;;;;3.2;1.8;;;;;;;10.11;62.06152;937.6017;;;;
2020/03/12 07:08:33;;;;;;;4.6;1.6;;;;;;;10.18;61.26074;937.6478;;;;
2020/03/12 07:10:58;;;;;;;4.7;1.5;;;;;;;9.86;61.68457;937.6506;;;;
2020/03/12 07:13:23;;;;;;;3.5;1.4;;;;;;;9.85;61.1123;937.6616;;;;
2020/03/12 07:15:48;;;;;;;3.4;1.1;;;;;;;10.16;60.10742;937.6381;;;;
2020/03/12 07:18:14;;;;;;;2.7;1.3;;;;;;;10.52;59.67676;937.6111;;;;
2020/03/12 07:20:39;;;;;;;6.7;1.5;;;;;;;10.72;56.86035;937.6337;;;;
2020/03/12 07:23:04;;;;;;;1.7;1;;;;;;;10.76;56.82031;937.6325;;;;
2020/03/12 07:25:29;;;;;;;3.1;1.5;;;;;;;11.15;56.84863;937.6181;;;;
2020/03/12 07:27:54;;;;;;;8.2;1.7;;;;;;;11.83;54.72852;937.5941;;;;
2020/03/12 07:30:19;;;;;;;2.5;1.3;;;;;;;12.03;53.63086;937.4992;;;;
2020/03/12 07:32:44;;;;;;;2.7;1.2;;;;;;;12.1;53.38672;937.5697;;;;
2020/03/12 07:35:09;;;;;;;7.8;1.4;;;;;;;13.01;51.53516;937.5242;;;;
2020/03/12 07:37:34;;;;;;;4.1;1.3;;;;;;;13.59;50.93652;937.4697;;;;
2020/03/12 07:40:00;;;;;;;7.8;1.7;;;;;;;13.64;50.47168;937.5009;;;;
2020/03/12 07:42:25;;;;;;;2.3;1.2;;;;;;;14.22;47.31445;937.5327;;;;
2020/03/12 07:44:50;;;;;;;4.5;1.4;;;;;;;14.06;47.20508;937.4764;;;;
2020/03/12 07:47:15;;;;;;;5.3;1.3;;;;;;;14.7;46.04004;937.4534;;;;
2020/03/12 07:49:40;;;;;;;6.9;1.2;;;;;;;15.42;44.70898;937.4665;;;;
2020/03/12 07:52:05;;;;;;;4;1.4;;;;;;;15.23;43.77637;937.5508;;;;
2020/03/12 07:54:30;;;;;;;11;1.9;;;;;;;16.14;43.56738;937.5009;;;;
2020/03/12 07:56:56;;;;;;;4.8;1.2;;;;;;;16.89;40.61816;937.4456;;;;
2020/03/12 07:59:21;;;;;;;5.6;1.6;;;;;;;17.84;39.12793;937.4553;;;;
2020/03/12 08:01:46;;;;;;;8.7;1.8;;;;;;;18.19;37.40332;937.4919;;;;
2020/03/12 08:04:11;;;;;;;12.9;2.2;;;;;;;19.37;35.29004;937.451;;;;
2020/03/12 08:06:37;;;;;;;14.1;1.9;;;;;;;18.64;35.68555;937.4211;;;;
2020/03/12 08:09:02;;;;;;;7.4;1.4;;;;;;;19.49;34.8457;937.4361;;;;
2020/03/12 08:11:27;;;;;;;4.8;1.4;;;;;;;18.57;35.41211;937.3713;;;;
2020/03/12 08:13:52;;;;;;;9.1;2.3;;;;;;;19.41;34.6875;937.3441;;;;
2020/03/12 08:16:17;;;;;;;8.5;2;;;;;;;18.8;35.32617;937.3133;;;;
2020/03/12 08:18:43;;;;;;;10.8;2.2;;;;;;;19.33;34.35449;937.4939;;;;
2020/03/12 08:21:08;;;;;;;5.7;1.5;;;;;;;20.12;32.05957;937.3544;;;;
2020/03/12 08:23:33;;;;;;;11.2;2;;;;;;;19.51;33.57617;937.4525;;;;
2020/03/12 08:25:58;;;;;;;4.4;1.5;;;;;;;20;33.61328;937.2525;;;;
2020/03/12 08:28:23;;;;;;;5.8;1.6;;;;;;;20.1;34.24023;937.1456;;;;
2020/03/12 08:30:48;;;;;;;3.7;1.3;;;;;;;21.55;33.81348;937.2925;;;;
2020/03/12 08:33:13;;;;;;;3.1;1.3;;;;;;;21.43;31.20508;937.27;;;;
2020/03/12 08:35:38;;;;;;;6.9;1.9;;;;;;;20.48;33.07715;937.2;;;;
2020/03/12 08:38:04;;;;;;;6.2;1.7;;;;;;;19.25;35.81641;937.2062;;;;
2020/03/12 08:40:29;;;;;;;6.5;1.5;;;;;;;19.43;35.09668;937.1785;;;;
2020/03/12 08:42:54;;;;;;;3.2;1.4;;;;;;;19.29;36.36719;937.122;;;;
2020/03/12 08:45:19;;;;;;;3.8;1.6;;;;;;;20.23;34.49512;937.0831;;;;
2020/03/12 08:47:44;;;;;;;2.9;1.3;;;;;;;21;34.37988;937.1365;;;;
2020/03/12 08:50:09;;;;;;;7.5;1.3;;;;;;;20.65;33.12598;937.0478;;;;
2020/03/12 08:52:34;;;;;;;2.9;1.2;;;;;;;20.43;33.50684;937.1716;;;;
2020/03/12 08:54:59;;;;;;;4.2;1.2;;;;;;;21.2;32.93359;936.9972;;;;
2020/03/12 08:57:24;;;;;;;2.8;1.1;;;;;;;22.6;31.25391;937.0861;;;;
2020/03/12 08:59:49;;;;;;;7;1.4;;;;;;;23.9;27.9668;937.0806;;;;
2020/03/12 09:02:14;;;;;;;4.1;1;;;;;;;24;26.76074;936.9833;;;;
2020/03/12 09:04:39;;;;;;;3.2;1.1;;;;;;;24.58;26.18164;936.8834;;;;
2020/03/12 09:07:05;;;;;;;8.5;1.5;;;;;;;22.04;29.52539;937.1083;;;;
2020/03/12 09:09:30;;;;;;;3.4;1.3;;;;;;;21.21;29.2959;937.0179;;;;
2020/03/12 09:11:55;;;;;;;5.5;1.4;;;;;;;21.27;29.79004;936.9941;;;;
2020/03/12 09:14:20;;;;;;;5.2;1.2;;;;;;;20.96;30.15527;937.0688;;;;
2020/03/12 09:16:45;;;;;;;7.3;1.5;;;;;;;19.81;32.02441;937.0396;;;;
2020/03/12 09:19:10;;;;;;;3.1;1;;;;;;;19.25;32.77637;936.9623;;;;
2020/03/12 09:21:35;;;;;;;3.9;1.1;;;;;;;19.62;31.83594;936.9749;;;;
2020/03/12 09:24:00;;;;;;;3.6;1;;;;;;;20;34.24414;936.993;;;;
2020/03/12 09:26:25;;;;;;;2.9;1.1;;;;;;;20.57;31.21484;936.9683;;;;
2020/03/12 09:28:50;;;;;;;4.6;0.9;;;;;;;20.43;30.90234;936.9233;;;;
2020/03/12 09:31:16;;;;;;;4.3;1.1;;;;;;;20.74;31.1582;936.7729;;;;
2020/03/12 09:33:41;;;;;;;4.1;1;;;;;;;20.08;31.66016;936.8495;;;;
2020/03/12 09:36:06;;;;;;;4.8;1.2;;;;;;;20.37;31.67969;936.8695;;;;
2020/03/12 09:38:31;;;;;;;5.5;1;;;;;;;21.44;31.61621;936.7527;;;;
2020/03/12 09:40:56;;;;;;;2.3;1;;;;;;;20.8;30.4248;936.8081;;;;
2020/03/12 09:43:21;;;;;;;13.5;2;;;;;;;21.38;32.34961;936.8103;;;;
2020/03/12 09:45:46;;;;;;;2.7;0.8;;;;;;;21.19;30.33398;936.8042;;;;
2020/03/12 09:48:11;;;;;;;5.4;1.5;;;;;;;21.56;30.95703;936.7703;;;;
2020/03/12 09:50:36;;;;;;;6.2;1.1;;;;;;;21.5;29.54883;936.7133;;;;
2020/03/12 09:53:01;;;;;;;5.9;1.3;;;;;;;20.89;31.0166;936.6931;;;;
2020/03/12 09:55:26;;;;;;;4.1;1;;;;;;;20.46;31.39551;936.6827;;;;
2020/03/12 09:57:52;;;;;;;5.9;1.2;;;;;;;19.91;33.10547;936.6635;;;;
2020/03/12 10:00:17;;;;;;;6.6;1.3;;;;;;;19.84;32.69141;936.5492;;;;
2020/03/12 10:02:42;;;;;;;3.1;0.8;;;;;;;19.92;33.40918;936.5946;;;;
2020/03/12 10:05:07;;;;;;;3.6;1.1;;;;;;;20.57;32.44141;936.5078;;;;
2020/03/12 10:07:32;;;;;;;5;1;;;;;;;21.28;32.27148;936.5402;;;;
2020/03/12 10:09:57;;;;;;;5;1.3;;;;;;;21.73;29.85645;936.5483;;;;
2020/03/12 10:12:23;;;;;;;4.9;1.1;;;;;;;22.44;29.9043;936.3823;;;;
2020/03/12 10:14:48;;;;;;;5.5;1.1;;;;;;;22.36;29.53516;936.5435;;;;
2020/03/12 10:17:13;;;;;;;9.3;1.3;;;;;;;22.27;29.55273;936.4073;;;;
2020/03/12 10:19:38;;;;;;;3.3;0.9;;;;;;;22.43;30.08008;936.2918;;;;
2020/03/12 10:22:03;;;;;;;2.6;0.9;;;;;;;22.54;28.33789;936.3405;;;;
2020/03/12 10:24:28;;;;;;;9.7;1.4;;;;;;;22.62;30.12793;936.3875;;;;
2020/03/12 10:26:54;;;;;;;3.3;0.9;;;;;;;22.69;29.90918;936.342;;;;
2020/03/12 10:29:19;;;;;;;4;0.9;;;;;;;21.94;30.38672;936.3152;;;;
2020/03/12 10:31:44;;;;;;;3.5;0.8;;;;;;;22.49;29.68457;936.2603;;;;
2020/03/12 10:34:10;;;;;;;2.4;0.9;;;;;;;22.49;28.93359;936.2003;;;;
2020/03/12 10:36:35;;;;;;;2.7;0.8;;;;;;;23.04;29.6748;936.248;;;;
2020/03/12 10:39:00;;;;;;;3.6;0.9;;;;;;;23.44;27.67871;936.1113;;;;
2020/03/12 10:41:25;;;;;;;2.7;0.9;;;;;;;23.72;27.24902;936.1711;;;;
2020/03/12 10:43:50;;;;;;;3.1;0.8;;;;;;;24.4;27.04297;936.1035;;;;
2020/03/12 10:46:15;;;;;;;2.3;0.8;;;;;;;24.71;26.96777;936.1566;;;;
2020/03/12 10:48:40;;;;;;;2.1;0.9;;;;;;;25.47;25.82031;936.046;;;;
2020/03/12 10:51:05;;;;;;;1.8;0.8;;;;;;;26.25;24.12598;936.0661;;;;
2020/03/12 10:53:30;;;;;;;4.6;1.7;;;;;;;27.16;24.80371;936.0048;;;;
2020/03/12 10:55:56;;;;;;;2.2;0.6;;;;;;;27.65;22.31445;935.9492;;;;
2020/03/12 10:58:21;;;;;;;2.6;0.7;;;;;;;27.26;24.12109;935.8736;;;;
2020/03/12 11:00:46;;;;;;;1.6;0.6;;;;;;;27.66;22.81348;935.8284;;;;
2020/03/12 11:03:11;;;;;;;2.9;0.7;;;;;;;28.86;21.41016;935.8828;;;;
2020/03/12 11:05:36;;;;;;;1.7;0.6;;;;;;;29.92;21.05469;935.9348;;;;
2020/03/12 11:08:02;;;;;;;1.6;0.6;;;;;;;30.89;19.1875;935.7673;;;;
2020/03/12 11:10:27;;;;;;;1.8;0.6;;;;;;;30.29;19.05469;935.7972;;;;
2020/03/12 11:12:52;;;;;;;1.2;0.7;;;;;;;30.37;19.5;935.8286;;;;
2020/03/12 11:15:17;;;;;;;2;0.9;;;;;;;30.67;19.54883;935.8686;;;;
2020/03/12 11:17:42;;;;;;;1;0.7;;;;;;;31.26;19.04785;935.7297;;;;
2020/03/12 11:20:08;;;;;;;2.2;0.7;;;;;;;31.37;18.88477;935.5007;;;;
2020/03/12 11:22:33;;;;;;;2.5;0.6;;;;;;;30.26;20.16309;935.5803;;;;
2020/03/12 11:24:58;;;;;;;2.2;0.6;;;;;;;30.61;19.46191;935.7212;;;;
2020/03/12 11:27:23;;;;;;;3.1;0.7;;;;;;;31.66;18.60938;935.4011;;;;
2020/03/12 11:29:49;;;;;;;2.1;0.7;;;;;;;31.7;18.8623;935.5317;;;;
2020/03/12 11:32:14;;;;;;;2.3;0.8;;;;;;;32.35;18.78223;935.4706;;;;
2020/03/12 11:34:39;;;;;;;2.1;0.8;;;;;;;33.04;16.86426;935.4468;;;;
2020/03/12 11:37:04;;;;;;;2.2;0.7;;;;;;;33.98;16.36914;935.4163;;;;
2020/03/12 11:39:29;;;;;;;3.2;1;;;;;;;34.1;16.31348;935.204;;;;
2020/03/12 11:41:54;;;;;;;3.5;0.8;;;;;;;34.09;16.3125;935.1994;;;;
2020/03/12 11:44:19;;;;;;;4.7;0.9;;;;;;;34.35;16.0332;935.2314;;;;
2020/03/12 11:46:46;;;;;;;2.4;0.7;;;;;;;34.42;15.70996;935.05;;;;
2020/03/12 11:49:11;;;;;;;0.8;0.6;;;;;;;35.25;15.24414;935.0578;;;;
2020/03/12 11:51:36;;;;;;;2;0.6;;;;;;;36.25;13.72949;934.8245;;;;
2020/03/12 11:54:01;;;;;;;1.5;0.6;;;;;;;37.49;13.70605;934.8705;;;;
2020/03/12 11:56:26;;;;;;;1.1;0.6;;;;;;;38.54;13.38477;934.7219;;;;
2020/03/12 11:58:51;;;;;;;1.9;0.7;;;;;;;39.4;12.6543;934.8116;;;;
2020/03/12 12:04:43;;;;;;;2.7;0.7;;;;;;;39.32;12.48145;934.7023;;;;
2020/03/12 12:06:08;;;;;;;2.1;0.7;;;;;;;39.57;13.21973;934.6981;;;;
2020/03/12 12:08:33;;;;;;;2;0.6;;;;;;;39.55;12.04883;934.4153;;;;
2020/03/12 12:10:58;;;;;;;2.1;0.5;;;;;;;39.12;12.92676;934.4227;;;;
2020/03/12 12:13:24;;;;;;;1.8;0.6;;;;;;;38.72;12.62305;934.3155;;;;
2020/03/12 12:15:49;;;;;;;2;0.6;;;;;;;36.6;14.00586;934.1995;;;;
2020/03/12 12:18:14;;;;;;;1.6;0.7;;;;;;;36.78;14.18066;934.2656;;;;
2020/03/12 12:20:39;;;;;;;1.7;0.5;;;;;;;38.76;13.5127;934.2084;;;;
2020/03/12 12:23:04;;;;;;;2.6;0.6;;;;;;;35.02;15.00684;934.1809;;;;
2020/03/12 12:25:29;;;;;;;1.2;0.5;;;;;;;37.33;12.79102;933.9917;;;;
2020/03/12 12:27:54;;;;;;;2.7;0.4;;;;;;;38.65;12.08691;933.9651;;;;
2020/03/12 12:30:19;;;;;;;1.1;0.7;;;;;;;37.69;11.64844;933.8918;;;;
2020/03/12 12:32:45;;;;;;;1.4;0.7;;;;;;;36.69;13.69434;933.8129;;;;
2020/03/12 12:35:10;;;;;;;6.2;0.9;;;;;;;36.72;13.90039;933.7966;;;;
2020/03/12 12:37:35;;;;;;;5.4;0.9;;;;;;;35.61;13.74609;933.8344;;;;
2020/03/12 12:40:02;;;;;;;6.7;1;;;;;;;33.35;16.05762;933.8144;;;;
2020/03/12 12:42:26;;;;;;;1.6;0.7;;;;;;;30.04;17.40918;933.7509;;;;
2020/03/12 12:44:52;;;;;;;4.4;0.6;;;;;;;29.13;18.66016;933.7219;;;;
2020/03/12 12:47:17;;;;;;;0.7;0.4;;;;;;;30;18.81543;933.7064;;;;
2020/03/12 12:49:42;;;;;;;1.1;0.5;;;;;;;33.01;16.82715;933.7372;;;;
2020/03/12 12:52:07;;;;;;;2.3;0.7;;;;;;;31.97;16.76465;933.7814;;;;
2020/03/12 12:54:32;;;;;;;8.8;1.4;;;;;;;29.88;18.71582;933.8161;;;;
2020/03/12 12:56:57;;;;;;;4.7;0.9;;;;;;;28.19;20.34473;933.726;;;;
2020/03/12 12:59:22;;;;;;;4.8;0.9;;;;;;;27.45;20.80957;933.7531;;;;
2020/03/12 13:01:47;;;;;;;3.6;0.7;;;;;;;29.85;18.91602;933.6922;;;;
2020/03/12 13:04:12;;;;;;;1.6;0.8;;;;;;;32.08;16.73242;933.6305;;;;
2020/03/12 13:06:37;;;;;;;1;0.6;;;;;;;31.64;17.55469;933.5689;;;;
2020/03/12 13:09:02;;;;;;;2.4;0.7;;;;;;;33.82;15.14844;933.5911;;;;
2020/03/12 13:11:27;;;;;;;3.6;0.7;;;;;;;34.6;14.96973;933.5461;;;;
2020/03/12 13:13:53;;;;;;;11.5;1.3;;;;;;;31.86;16.49707;933.5901;;;;
2020/03/12 13:16:18;;;;;;;4.9;1.1;;;;;;;32.97;16.30957;933.5187;;;;
2020/03/12 13:18:43;;;;;;;1.4;0.7;;;;;;;33;16.17773;933.4311;;;;
2020/03/12 13:21:08;;;;;;;1.1;0.7;;;;;;;31.36;16.8623;933.3744;;;;
2020/03/12 13:23:33;;;;;;;3.6;0.7;;;;;;;29.92;18.28711;933.4441;;;;
2020/03/12 13:25:58;;;;;;;2.6;0.7;;;;;;;31.79;17.26074;933.5432;;;;
2020/03/12 13:28:23;;;;;;;2.3;0.9;;;;;;;29.79;23.94727;933.551;;;;
2020/03/12 13:30:48;;;;;;;2;0.7;;;;;;;30.37;23.82227;933.3761;;;;
2020/03/12 13:33:13;;;;;;;5.4;1;;;;;;;29.13;25.44824;933.0849;;;;
2020/03/12 13:35:38;;;;;;;8.8;1.5;;;;;;;25.94;28.7334;933.4573;;;;
2020/03/12 13:38:04;;;;;;;9.2;1.6;;;;;;;25.92;28.45996;933.5669;;;;
2020/03/12 13:40:29;;;;;;;3.7;0.8;;;;;;;26.64;28.24512;933.3365;;;;
2020/03/12 13:42:54;;;;;;;7.9;1.4;;;;;;;27.66;27.85742;933.4286;;;;
2020/03/12 13:45:19;;;;;;;9.8;1.8;;;;;;;27.39;27.39063;933.2961;;;;
2020/03/12 13:47:44;;;;;;;5.9;1.1;;;;;;;26.77;27.58984;933.3317;;;;
2020/03/12 13:50:09;;;;;;;3.9;1.2;;;;;;;27.08;25.66504;933.3576;;;;
2020/03/12 13:52:34;;;;;;;2.2;1.1;;;;;;;25.7;28.38672;933.4766;;;;
2020/03/12 13:54:59;;;;;;;4.6;1;;;;;;;24.22;28.88184;933.2242;;;;
2020/03/12 13:57:24;;;;;;;4.4;1.1;;;;;;;24.33;31.33984;933.3404;;;;
2020/03/12 13:59:50;;;;;;;2.7;1.1;;;;;;;23.53;32.94238;933.3825;;;;
2020/03/12 14:02:15;;;;;;;3.2;1.1;;;;;;;23.16;35.66406;933.4885;;;;
2020/03/12 14:04:40;;;;;;;7.1;1.6;;;;;;;22.15;36.75488;933.4481;;;;
2020/03/12 14:07:05;;;;;;;3.5;1;;;;;;;22.07;36.30371;933.3802;;;;
2020/03/12 14:09:30;;;;;;;3.9;1.1;;;;;;;21.44;38.44043;933.3552;;;;
2020/03/12 14:11:58;;;;;;;2.4;1;;;;;;;20.65;40.58105;933.5239;;;;
2020/03/12 14:14:24;;;;;;;6.6;1.1;;;;;;;20.67;41.40039;933.291;;;;
2020/03/12 14:16:49;;;;;;;7.2;1.8;;;;;;;20.37;41.62891;933.2593;;;;
2020/03/12 14:19:14;;;;;;;2.9;1.1;;;;;;;20.17;42.3457;933.3703;;;;
2020/03/12 14:21:39;;;;;;;2.9;1.3;;;;;;;20.15;41.96973;933.3049;;;;
2020/03/12 14:24:04;;;;;;;5.1;1.4;;;;;;;19.99;42.42188;933.2358;;;;
2020/03/12 14:26:29;;;;;;;6;1.5;;;;;;;19.75;44.03125;933.1969;;;;
2020/03/12 14:28:54;;;;;;;3.6;1.3;;;;;;;19.34;44.36328;933.2079;;;;
2020/03/12 14:31:20;;;;;;;6.1;1.7;;;;;;;19.97;44.09961;933.1644;;;;
2020/03/12 14:33:45;;;;;;;5.4;1.3;;;;;;;19.88;43.93945;933.1102;;;;
2020/03/12 14:36:10;;;;;;;2.5;1;;;;;;;19.75;44.58008;933.1135;;;;
2020/03/12 14:38:35;;;;;;;4.3;1.3;;;;;;;19.31;44.7334;933.2187;;;;
2020/03/12 14:41:00;;;;;;;3.7;1;;;;;;;19.07;45.41895;933.2688;;;;
2020/03/12 14:43:25;;;;;;;2.6;1.2;;;;;;;18.83;45.96484;933.2395;;;;
2020/03/12 14:45:50;;;;;;;4.9;1.5;;;;;;;18.98;45.30469;933.2463;;;;
2020/03/12 14:48:15;;;;;;;3.6;1.1;;;;;;;19.09;45.63086;933.2915;;;;
2020/03/12 14:50:40;;;;;;;3.3;1.2;;;;;;;19.06;45.51172;933.2561;;;;
2020/03/12 14:53:06;;;;;;;4.4;1.3;;;;;;;19;45.00488;933.3923;;;;
2020/03/12 14:55:31;;;;;;;4.5;1.2;;;;;;;18.82;46.95215;933.175;;;;
2020/03/12 14:57:56;;;;;;;2.7;1.3;;;;;;;18.85;45.88477;933.2356;;;;
2020/03/12 15:00:21;;;;;;;5.2;2.1;;;;;;;18.71;46.48633;933.2831;;;;
2020/03/12 15:02:46;;;;;;;2.6;1.3;;;;;;;18.95;46.02246;933.2392;;;;
2020/03/12 15:05:11;;;;;;;3.2;1.2;;;;;;;19.04;45.28809;933.3496;;;;
2020/03/12 15:07:36;;;;;;;4.7;1.2;;;;;;;18.93;45.3457;933.3172;;;;
2020/03/12 15:10:01;;;;;;;3.3;0.9;;;;;;;18.9;44.69238;933.3487;;;;
2020/03/12 15:12:26;;;;;;;6.5;1.3;;;;;;;19.12;44.06152;933.4125;;;;
2020/03/12 15:14:51;;;;;;;3.9;1.2;;;;;;;19.26;44.55273;933.3801;;;;
2020/03/12 15:17:16;;;;;;;5.1;1.2;;;;;;;19.39;43.82129;933.3339;;;;
2020/03/12 15:19:41;;;;;;;3.4;1.2;;;;;;;19.43;44.24414;933.2965;;;;
2020/03/12 15:22:06;;;;;;;3.6;1.3;;;;;;;19.34;43.9082;933.3081;;;;
2020/03/12 15:24:32;;;;;;;3.7;1.3;;;;;;;19.25;44.03906;933.3262;;;;
2020/03/12 15:26:57;;;;;;;2.9;1.1;;;;;;;18.91;44.62305;933.2492;;;;
2020/03/12 15:29:22;;;;;;;5.6;1.2;;;;;;;18.87;45.10742;933.2947;;;;
2020/03/12 15:31:47;;;;;;;6;1.6;;;;;;;18.39;46.13965;933.3205;;;;
2020/03/12 15:34:12;;;;;;;6.8;1.5;;;;;;;18.43;46.3877;933.4172;;;;